Terminal Aerodrome Forecast
Issued by NWS

Home | Current Version | Previous Version | Text Only | Print | Product List | Glossary On
Versions: 1 2 3 4 5 6 7 8 9 10 11 12 13
000
FTUS44 KLZK 311700 RRA
TAFBPK
TAF
KBPK 311752Z 3118/0118 15012KT P6SM SCT080 OVC100
      TEMPO 0107/0109 -SHRA SCT025 OVC040
     FM010900 16011KT 5SM -SHRA BR BKN025 OVC040 WS020/21040KT
     FM011200 18011KT 4SM SHRA BKN007 OVC015=

USA.gov is the U.S. government's official web portal to all federal, state and local government web resources and services.